createdAt,value
2023-02-08T00:01:09.860Z,103815.78
2023-02-08T00:03:37.671Z,103813.19
2023-02-08T00:06:06.738Z,103804.47
2023-02-08T00:08:34.787Z,103811.50
2023-02-08T00:11:02.844Z,103804.34
2023-02-08T00:13:30.638Z,103812.47
2023-02-08T00:15:59.788Z,103809.91
2023-02-08T00:18:27.528Z,103808.44
2023-02-08T00:20:57.260Z,103798.75
2023-02-08T00:23:25.406Z,103804.81
2023-02-08T00:25:53.162Z,103780.78
2023-02-08T00:28:21.354Z,103794.50
2023-02-08T00:30:49.845Z,103796.31
2023-02-08T00:33:19.022Z,103777.59
2023-02-08T00:35:46.725Z,103793.03
2023-02-08T00:38:14.504Z,103800.06
2023-02-08T00:40:42.496Z,103799.22
2023-02-08T00:43:10.356Z,103799.22
2023-02-08T00:45:38.250Z,103794.00
2023-02-08T00:48:06.025Z,103797.63
2023-02-08T00:50:35.248Z,103796.78
2023-02-08T00:53:02.942Z,103790.09
2023-02-08T00:55:30.774Z,103792.53
2023-02-08T00:57:58.491Z,103796.16
2023-02-08T01:00:26.212Z,103807.69
2023-02-08T01:02:53.956Z,103796.28
2023-02-08T01:05:21.727Z,103789.25
2023-02-08T01:07:50.775Z,103793.72
2023-02-08T01:10:18.565Z,103794.69
2023-02-08T01:12:46.276Z,103788.50
2023-02-08T01:15:13.971Z,103786.94
2023-02-08T01:17:41.636Z,103791.41
2023-02-08T01:20:10.328Z,103777.34
2023-02-08T01:22:38.076Z,103789.81
2023-02-08T01:25:07.343Z,103783.53
2023-02-08T01:27:35.043Z,103786.31
2023-02-08T01:30:02.779Z,103777.47
2023-02-08T01:32:30.470Z,103776.59
2023-02-08T01:34:58.170Z,103775.88
2023-02-08T01:37:26.148Z,103774.19
2023-02-08T01:39:53.864Z,103769.56
2023-02-08T01:42:23.360Z,103774.19
2023-02-08T01:45:23.804Z,103777.69
2023-02-08T01:47:55.829Z,103778.53
2023-02-08T01:50:28.348Z,103768.97
2023-02-08T01:52:56.198Z,103775.25
2023-02-08T01:55:27.085Z,103771.75
2023-02-08T01:58:00.044Z,103771.00
2023-02-08T02:00:28.571Z,103768.34
2023-02-08T02:02:58.041Z,103766.63
2023-02-08T02:05:30.988Z,103774.75
2023-02-08T02:07:59.698Z,103776.56
2023-02-08T02:10:29.965Z,103774.03
2023-02-08T02:13:03.866Z,103769.78
2023-02-08T02:15:31.675Z,103766.38
2023-02-08T02:17:59.523Z,103767.22
2023-02-08T02:20:41.018Z,103765.41
2023-02-08T02:23:42.896Z,103761.28
2023-02-08T02:26:32.782Z,103762.13
2023-02-08T02:29:43.805Z,103759.56
2023-02-08T02:32:24.509Z,103757.88
2023-02-08T02:34:58.600Z,103755.31
2023-02-08T02:37:38.783Z,103765.13
2023-02-08T02:40:16.317Z,103757.25
2023-02-08T02:43:11.777Z,103767.91
2023-02-08T02:45:47.958Z,103765.25
2023-02-08T02:48:24.265Z,103763.66
2023-02-08T02:50:57.910Z,103760.25
2023-02-08T02:53:33.522Z,103771.78
2023-02-08T02:56:08.227Z,103769.22
2023-02-08T02:58:38.357Z,103778.31
2023-02-08T03:01:06.261Z,103772.97
2023-02-08T03:03:35.938Z,103771.28
2023-02-08T03:06:08.139Z,103774.09
2023-02-08T03:08:59.556Z,103774.19
2023-02-08T03:11:32.220Z,103773.34
2023-02-08T03:14:16.816Z,103761.72
2023-02-08T03:17:03.432Z,103756.63
2023-02-08T03:19:39.872Z,103761.09
2023-02-08T03:22:14.335Z,103757.69
2023-02-08T03:24:52.400Z,103756.84
2023-02-08T03:27:28.597Z,103759.63
2023-02-08T03:30:01.786Z,103761.44
2023-02-08T03:32:37.195Z,103764.22
2023-02-08T03:35:11.283Z,103757.06
2023-02-08T03:37:44.762Z,103757.19
2023-02-08T03:40:18.035Z,103755.38
2023-02-08T03:42:50.031Z,103762.53
2023-02-08T03:45:22.827Z,103755.50
2023-02-08T03:47:53.432Z,103760.81
2023-02-08T03:50:24.666Z,103766.16
2023-02-08T03:52:54.724Z,103764.44
2023-02-08T03:55:26.325Z,103761.03
2023-02-08T03:57:59.381Z,103759.56
2023-02-08T04:00:27.887Z,103766.38
2023-02-08T04:03:00.385Z,103775.34
2023-02-08T04:05:30.104Z,103768.19
2023-02-08T04:07:57.812Z,103767.44
2023-02-08T04:10:25.546Z,103766.59
2023-02-08T04:12:53.278Z,103765.00
2023-02-08T04:15:22.020Z,103763.09
2023-02-08T04:17:49.797Z,103768.41
2023-02-08T04:20:17.736Z,103759.81
2023-02-08T04:22:46.815Z,103765.88
2023-02-08T04:25:14.536Z,103761.50
2023-02-08T04:27:42.440Z,103758.94
2023-02-08T04:30:11.324Z,103761.72
2023-02-08T04:32:39.017Z,103760.03
2023-02-08T04:35:07.927Z,103757.38
2023-02-08T04:37:35.648Z,103759.19
2023-02-08T04:40:05.124Z,103761.94
2023-02-08T04:42:32.859Z,103761.22
2023-02-08T04:45:00.600Z,103744.94
2023-02-08T04:47:28.264Z,103756.00
2023-02-08T04:49:55.996Z,103756.13
2023-02-08T04:52:23.731Z,103759.63
2023-02-08T04:54:51.462Z,103753.56
2023-02-08T04:57:20.533Z,103759.84
2023-02-08T04:59:48.228Z,103760.72
2023-02-08T05:02:15.992Z,103760.81
2023-02-08T05:04:43.783Z,103761.66
2023-02-08T05:07:11.521Z,103758.38
2023-02-08T05:09:39.224Z,103759.34
2023-02-08T05:12:07.169Z,103763.81
2023-02-08T05:14:36.213Z,103754.34
2023-02-08T05:17:04.026Z,103756.78
2023-02-08T05:19:31.909Z,103750.84
2023-02-08T05:21:59.609Z,103763.94
2023-02-08T05:24:27.437Z,103764.03
2023-02-08T05:26:55.135Z,103759.91
2023-02-08T05:29:22.820Z,103758.94
2023-02-08T05:31:52.008Z,103765.13
2023-02-08T05:34:19.723Z,103759.78
2023-02-08T05:36:47.491Z,103754.56
2023-02-08T05:39:15.219Z,103751.91
2023-02-08T05:41:42.930Z,103754.69
2023-02-08T05:44:10.621Z,103754.06
2023-02-08T05:46:38.609Z,103758.41
2023-02-08T05:49:08.205Z,103755.88
2023-02-08T05:51:36.026Z,103751.41
2023-02-08T05:54:05.447Z,103756.84
2023-02-08T05:56:33.379Z,103747.34
2023-02-08T05:59:01.626Z,103757.78
2023-02-08T06:01:29.949Z,103760.69
2023-02-08T06:03:59.324Z,103753.44
2023-02-08T06:06:28.601Z,103750.88
2023-02-08T06:08:56.292Z,103760.69
2023-02-08T06:11:24.036Z,103752.81
2023-02-08T06:13:51.785Z,103754.69
2023-02-08T06:16:20.132Z,103755.59
2023-02-08T06:18:47.996Z,103757.59
2023-02-08T06:21:15.677Z,103758.16
2023-02-08T06:23:44.761Z,103751.41
2023-02-08T06:26:12.471Z,103754.84
2023-02-08T06:28:40.441Z,103753.69
2023-02-08T06:31:08.223Z,103748.03
2023-02-08T06:33:35.899Z,103759.31
2023-02-08T06:36:03.715Z,103751.25
2023-02-08T06:38:31.403Z,103744.56
2023-02-08T06:41:00.684Z,103740.81
2023-02-08T06:43:28.483Z,103738.34
2023-02-08T06:45:56.218Z,103738.91
2023-02-08T06:48:24.008Z,103739.97
2023-02-08T06:50:53.206Z,103738.34
2023-02-08T06:53:21.408Z,103736.50
2023-02-08T06:55:49.310Z,103735.28
2023-02-08T06:58:19.154Z,103745.44
2023-02-08T07:00:46.943Z,103744.19
2023-02-08T07:03:16.094Z,103739.09
2023-02-08T07:05:58.664Z,103742.97
2023-02-08T07:08:31.271Z,103748.63
2023-02-08T07:10:58.774Z,103745.44
2023-02-08T07:13:27.832Z,103747.50
2023-02-08T07:15:55.559Z,103739.06
2023-02-08T07:18:23.266Z,103743.25
2023-02-08T07:20:50.973Z,103739.63
2023-02-08T07:23:18.720Z,103747.41
2023-02-08T07:25:46.667Z,103742.06
2023-02-08T07:28:14.404Z,103746.31
2023-02-08T07:30:43.554Z,103745.59
2023-02-08T07:33:11.297Z,103741.97
2023-02-08T07:35:38.965Z,103745.59
2023-02-08T07:38:06.710Z,103749.22
2023-02-08T07:40:38.095Z,103747.41
2023-02-08T07:43:06.120Z,103756.34
2023-02-08T07:45:33.912Z,103754.66
2023-02-08T07:48:02.989Z,103744.94
2023-02-08T07:50:30.735Z,103752.09
2023-02-08T07:52:58.530Z,103746.88
2023-02-08T07:55:27.612Z,103742.41
2023-02-08T07:57:57.021Z,103748.69
2023-02-08T08:00:26.949Z,103754.97
2023-02-08T08:02:54.876Z,103752.31
2023-02-08T08:05:23.953Z,103753.91
2023-02-08T08:07:51.709Z,103753.16
2023-02-08T08:10:19.610Z,103749.75
2023-02-08T08:12:47.362Z,103748.06
2023-02-08T08:15:15.014Z,103743.59
2023-02-08T08:17:43.552Z,103746.13
2023-02-08T08:20:12.416Z,103736.66
2023-02-08T08:22:41.612Z,103732.94
2023-02-08T08:25:09.703Z,103737.41
2023-02-08T08:27:38.095Z,103738.16
2023-02-08T08:30:07.789Z,103731.00
2023-02-08T08:32:35.512Z,103720.47
2023-02-08T08:35:03.240Z,103725.47
2023-02-08T08:37:30.972Z,103733.44
2023-02-08T08:40:00.013Z,103722.91
2023-02-08T08:42:27.834Z,103730.06
2023-02-08T08:44:56.510Z,103722.91
2023-02-08T08:47:24.222Z,103735.50
2023-02-08T08:49:52.023Z,103732.72
2023-02-08T08:52:19.850Z,103729.31
2023-02-08T08:54:47.699Z,103718.66
2023-02-08T08:57:17.685Z,103718.78
2023-02-08T08:59:45.430Z,103715.25
2023-02-08T09:02:14.011Z,103719.50
2023-02-08T09:04:42.089Z,103717.03
2023-02-08T09:07:11.049Z,103709.09
2023-02-08T09:09:39.211Z,103711.38
2023-02-08T09:12:07.183Z,103717.28
2023-02-08T09:14:36.242Z,103713.34
2023-02-08T09:17:03.964Z,103714.59
2023-02-08T09:19:31.659Z,103705.41
2023-02-08T09:22:00.629Z,103705.06
2023-02-08T09:24:28.523Z,103706.31
2023-02-08T09:26:56.279Z,103707.56
2023-02-08T09:29:24.036Z,103705.75
2023-02-08T09:31:53.255Z,103709.88
2023-02-08T09:34:21.049Z,103708.03
2023-02-08T09:36:48.904Z,103707.78
2023-02-08T09:39:18.697Z,103712.28
2023-02-08T09:42:13.858Z,103711.19
2023-02-08T09:44:53.922Z,103714.94
2023-02-08T09:47:29.944Z,103716.75
2023-02-08T09:50:03.163Z,103717.00
2023-02-08T09:52:38.197Z,103717.34
2023-02-08T09:55:21.481Z,103719.75
2023-02-08T09:57:51.702Z,103720.50
2023-02-08T10:00:25.998Z,103729.09
2023-02-08T10:02:59.147Z,103721.69
2023-02-08T10:05:29.394Z,103725.56
2023-02-08T10:07:58.512Z,103721.06
2023-02-08T10:10:39.000Z,103720.41
2023-02-08T10:13:23.970Z,103722.84
2023-02-08T10:16:06.406Z,103726.13
2023-02-08T10:18:45.734Z,103723.19
2023-02-08T10:21:26.933Z,103726.44
2023-02-08T10:24:16.265Z,103726.16
2023-02-08T10:26:49.037Z,103718.34
2023-02-08T10:29:32.926Z,103721.06
2023-02-08T10:32:25.104Z,103724.75
2023-02-08T10:34:57.315Z,103733.28
2023-02-08T10:37:30.650Z,103729.03
2023-02-08T10:40:01.706Z,103732.56
2023-02-08T10:42:31.354Z,103737.53
2023-02-08T10:45:22.600Z,103737.03
2023-02-08T10:47:56.526Z,103732.28
2023-02-08T10:50:34.379Z,103730.22
2023-02-08T10:53:02.196Z,103732.25
2023-02-08T10:55:32.555Z,103737.84
2023-02-08T10:58:03.476Z,103733.59
2023-02-08T11:00:34.480Z,103735.53
2023-02-08T11:03:13.609Z,103719.88
2023-02-08T11:05:43.154Z,103715.88
2023-02-08T11:08:15.504Z,103720.47
2023-02-08T11:10:46.561Z,103724.97
2023-02-08T11:13:21.485Z,103718.78
2023-02-08T11:15:52.797Z,103715.13
2023-02-08T11:18:23.908Z,103709.81
2023-02-08T11:20:56.276Z,103702.75
2023-02-08T11:23:26.857Z,103711.63
2023-02-08T11:25:56.574Z,103713.44
2023-02-08T11:28:28.108Z,103706.16
2023-02-08T11:30:57.884Z,103699.97
2023-02-08T11:33:27.398Z,103691.13
2023-02-08T11:36:06.130Z,103683.25
2023-02-08T11:38:36.502Z,103686.63
2023-02-08T11:41:06.642Z,103678.63
2023-02-08T11:43:36.248Z,103675.00
2023-02-08T11:46:06.020Z,103667.00
2023-02-08T11:48:41.805Z,103655.34
2023-02-08T11:51:13.857Z,103654.03
2023-02-08T11:53:47.500Z,103653.53
2023-02-08T11:56:21.006Z,103649.66
2023-02-08T11:59:20.053Z,103651.13
2023-02-08T12:01:47.946Z,103649.19
2023-02-08T12:04:18.548Z,103638.75
2023-02-08T12:07:21.172Z,103638.50
2023-02-08T12:10:18.021Z,103642.03
2023-02-08T12:13:00.475Z,103638.38
2023-02-08T12:15:48.090Z,103634.75
2023-02-08T12:18:30.115Z,103630.25
2023-02-08T12:21:05.656Z,103626.63
2023-02-08T12:24:04.179Z,103621.16
2023-02-08T12:27:01.463Z,103616.66
2023-02-08T12:29:52.552Z,103621.03
2023-02-08T12:32:34.790Z,103616.56
2023-02-08T12:36:02.871Z,103615.59
2023-02-08T12:39:26.620Z,103611.84
2023-02-08T12:42:30.143Z,103596.56
2023-02-08T12:45:15.278Z,103599.94
2023-02-08T12:48:04.487Z,103598.00
2023-02-08T12:50:39.708Z,103589.03
2023-02-08T12:53:25.663Z,103588.91
2023-02-08T12:55:56.333Z,103589.63
2023-02-08T12:58:30.369Z,103578.69
2023-02-08T13:01:02.563Z,103566.19
2023-02-08T13:03:42.874Z,103564.97
2023-02-08T13:06:17.627Z,103556.81
2023-02-08T13:08:51.588Z,103554.88
2023-02-08T13:11:26.759Z,103549.53
2023-02-08T13:13:59.825Z,103548.44
2023-02-08T13:16:34.055Z,103542.97
2023-02-08T13:19:19.580Z,103533.00
2023-02-08T13:21:47.814Z,103532.50
2023-02-08T13:24:22.448Z,103526.00
2023-02-08T13:26:50.157Z,103518.84
2023-02-08T13:29:21.514Z,103512.59
2023-02-08T13:31:52.736Z,103515.41
2023-02-08T13:34:29.035Z,103510.59
2023-02-08T13:37:00.570Z,103504.19
2023-02-08T13:39:35.538Z,103501.28
2023-02-08T13:42:05.346Z,103497.50
2023-02-08T13:44:37.031Z,103491.59
2023-02-08T13:47:06.351Z,103496.06
2023-02-08T13:49:53.522Z,103487.44
2023-02-08T13:52:53.171Z,103487.00
2023-02-08T13:55:53.432Z,103482.72
2023-02-08T13:59:05.908Z,103476.34
2023-02-08T14:01:37.122Z,103474.94
2023-02-08T14:04:34.772Z,103470.84
2023-02-08T14:07:13.589Z,103471.09
2023-02-08T14:09:49.937Z,103473.34
2023-02-08T14:12:25.045Z,103470.66
2023-02-08T14:15:28.957Z,103470.09
2023-02-08T14:17:59.932Z,103472.03
2023-02-08T14:20:32.460Z,103475.84
2023-02-08T14:23:03.354Z,103476.69
2023-02-08T14:25:43.000Z,103469.81
2023-02-08T14:28:26.791Z,103469.63
2023-02-08T14:30:57.911Z,103464.28
2023-02-08T14:33:30.456Z,103460.63
2023-02-08T14:36:00.760Z,103453.81
2023-02-08T14:38:52.082Z,103450.34
2023-02-08T14:41:45.759Z,103449.00
2023-02-08T14:44:56.196Z,103442.97
2023-02-08T14:47:53.296Z,103437.19
2023-02-08T14:50:27.141Z,103427.47
2023-02-08T14:53:02.429Z,103428.31
2023-02-08T14:55:35.131Z,103415.50
2023-02-08T14:58:09.137Z,103436.63
2023-02-08T15:00:40.010Z,103428.88
2023-02-08T15:03:16.113Z,103422.81
2023-02-08T15:05:57.674Z,103427.03
2023-02-08T15:08:26.097Z,103420.41
2023-02-08T15:10:53.966Z,103422.66
2023-02-08T15:13:24.836Z,103416.16
2023-02-08T15:15:55.757Z,103418.97
2023-02-08T15:18:26.632Z,103416.59
2023-02-08T15:21:04.425Z,103400.81
2023-02-08T15:23:32.696Z,103408.13
2023-02-08T15:26:02.832Z,103401.22
2023-02-08T15:28:32.600Z,103402.34
2023-02-08T15:31:03.399Z,103406.31
2023-02-08T15:33:32.402Z,103394.22
2023-02-08T15:36:06.286Z,103392.25
2023-02-08T15:38:38.495Z,103383.22
2023-02-08T15:41:08.926Z,103381.91
2023-02-08T15:43:37.672Z,103382.88
2023-02-08T15:46:08.110Z,103375.06
2023-02-08T15:48:38.070Z,103370.91
2023-02-08T15:51:08.298Z,103369.34
2023-02-08T15:53:37.038Z,103367.19
2023-02-08T15:56:07.355Z,103365.69
2023-02-08T15:58:39.525Z,103361.19
2023-02-08T16:01:09.709Z,103344.31
2023-02-08T16:03:38.785Z,103356.16
2023-02-08T16:06:10.783Z,103351.53
2023-02-08T16:08:43.273Z,103344.19
2023-02-08T16:11:14.695Z,103338.56
2023-02-08T16:13:48.897Z,103328.84
2023-02-08T16:16:20.191Z,103331.81
2023-02-08T16:18:50.201Z,103329.44
2023-02-08T16:21:30.002Z,103328.88
2023-02-08T16:23:59.725Z,103333.66
2023-02-08T16:26:29.694Z,103335.91
2023-02-08T16:29:00.368Z,103333.38
2023-02-08T16:31:30.836Z,103333.66
2023-02-08T16:34:01.566Z,103330.41
2023-02-08T16:36:34.972Z,103326.47
2023-02-08T16:39:36.878Z,103322.81
2023-02-08T16:42:16.234Z,103334.34
2023-02-08T16:45:03.423Z,103331.81
2023-02-08T16:47:37.434Z,103322.09
2023-02-08T16:50:05.497Z,103314.34
2023-02-08T16:52:35.515Z,103315.47
2023-02-08T16:55:03.586Z,103328.00
2023-02-08T16:57:40.844Z,103316.47
2023-02-08T17:00:16.385Z,103312.38
2023-02-08T17:02:44.239Z,103300.00
2023-02-08T17:05:12.056Z,103311.97
2023-02-08T17:07:41.206Z,103312.81
2023-02-08T17:10:15.301Z,103313.63
2023-02-08T17:12:43.101Z,103306.00
2023-02-08T17:15:11.101Z,103310.59
2023-02-08T17:17:39.041Z,103299.97
2023-02-08T17:20:17.336Z,103302.25
2023-02-08T17:22:46.829Z,103290.53
2023-02-08T17:25:19.013Z,103286.75
2023-02-08T17:27:53.557Z,103284.41
2023-02-08T17:30:24.878Z,103282.19
2023-02-08T17:32:53.599Z,103296.16
2023-02-08T17:35:22.017Z,103290.97
2023-02-08T17:37:53.102Z,103282.94
2023-02-08T17:40:22.353Z,103278.00
2023-02-08T17:42:50.245Z,103279.56
2023-02-08T17:45:18.120Z,103274.66
2023-02-08T17:47:45.886Z,103271.69
2023-02-08T17:50:16.116Z,103269.44
2023-02-08T17:52:43.953Z,103271.56
2023-02-08T17:55:15.139Z,103264.94
2023-02-08T17:57:44.374Z,103269.16
2023-02-08T18:00:15.182Z,103266.91
2023-02-08T18:02:47.864Z,103263.94
2023-02-08T18:05:16.045Z,103269.56
2023-02-08T18:07:43.979Z,103263.38
2023-02-08T18:10:15.245Z,103261.66
2023-02-08T18:12:43.857Z,103255.59
2023-02-08T18:15:13.770Z,103255.97
2023-02-08T18:17:42.007Z,103244.38
2023-02-08T18:20:11.757Z,103254.47
2023-02-08T18:22:39.634Z,103255.56
2023-02-08T18:25:08.906Z,103248.81
2023-02-08T18:27:38.054Z,103257.69
2023-02-08T18:30:06.823Z,103263.38
2023-02-08T18:32:34.665Z,103249.91
2023-02-08T18:35:04.281Z,103253.03
2023-02-08T18:37:33.178Z,103256.03
2023-02-08T18:40:00.972Z,103248.88
2023-02-08T18:42:28.940Z,103256.06
2023-02-08T18:44:58.225Z,103252.09
2023-02-08T18:47:25.938Z,103253.38
2023-02-08T18:49:55.262Z,103246.63
2023-02-08T18:52:24.664Z,103240.72
2023-02-08T18:54:52.412Z,103247.34
2023-02-08T18:57:20.430Z,103243.41
2023-02-08T18:59:48.241Z,103243.13
2023-02-08T19:02:21.821Z,103245.50
2023-02-08T19:04:50.071Z,103241.53
2023-02-08T19:07:21.007Z,103236.44
2023-02-08T19:09:49.518Z,103240.34
2023-02-08T19:12:18.969Z,103240.41
2023-02-08T19:14:50.560Z,103238.94
2023-02-08T19:17:19.911Z,103237.09
2023-02-08T19:19:48.112Z,103239.22
2023-02-08T19:22:15.857Z,103236.16
2023-02-08T19:24:43.653Z,103238.91
2023-02-08T19:27:11.370Z,103246.41
2023-02-08T19:29:39.086Z,103237.00
2023-02-08T19:32:08.007Z,103238.00
2023-02-08T19:34:37.173Z,103237.75
2023-02-08T19:37:04.990Z,103235.78
2023-02-08T19:39:32.828Z,103225.78
2023-02-08T19:42:00.592Z,103235.22
2023-02-08T19:44:30.446Z,103229.59
2023-02-08T19:46:59.113Z,103223.84
2023-02-08T19:49:28.411Z,103226.94
2023-02-08T19:51:57.874Z,103222.16
2023-02-08T19:54:26.060Z,103228.75
2023-02-08T19:56:54.969Z,103229.19
2023-02-08T19:59:24.945Z,103231.44
2023-02-08T20:01:53.311Z,103236.91
2023-02-08T20:04:21.085Z,103246.06
2023-02-08T20:06:52.287Z,103233.16
2023-02-08T20:09:21.680Z,103235.13
2023-02-08T20:11:57.333Z,103237.34
2023-02-08T20:14:25.972Z,103233.13
2023-02-08T20:16:53.935Z,103230.59
2023-02-08T20:19:21.902Z,103222.16
2023-02-08T20:21:49.842Z,103217.50
2023-02-08T20:24:17.927Z,103220.31
2023-02-08T20:26:48.392Z,103233.81
2023-02-08T20:29:16.902Z,103235.09
2023-02-08T20:31:47.392Z,103237.88
2023-02-08T20:34:18.640Z,103229.03
2023-02-08T20:37:05.331Z,103244.34
2023-02-08T20:39:35.087Z,103247.28
2023-02-08T20:42:04.613Z,103237.44
2023-02-08T20:44:32.519Z,103241.38
2023-02-08T20:47:00.489Z,103229.00
2023-02-08T20:49:29.378Z,103236.31
2023-02-08T20:51:57.327Z,103239.13
2023-02-08T20:54:25.634Z,103237.44
2023-02-08T20:56:55.136Z,103232.94
2023-02-08T20:59:24.339Z,103237.28
2023-02-08T21:01:52.090Z,103246.44
2023-02-08T21:04:23.352Z,103248.25
2023-02-08T21:06:52.307Z,103249.22
2023-02-08T21:09:21.177Z,103236.16
2023-02-08T21:11:49.564Z,103234.59
2023-02-08T21:14:20.684Z,103231.22
2023-02-08T21:16:52.870Z,103228.69
2023-02-08T21:19:21.465Z,103227.00
2023-02-08T21:21:51.697Z,103230.66
2023-02-08T21:24:19.583Z,103234.28
2023-02-08T21:26:47.357Z,103228.38
2023-02-08T21:29:15.096Z,103229.34
2023-02-08T21:31:42.928Z,103230.34
2023-02-08T21:34:13.494Z,103229.50
2023-02-08T21:36:41.247Z,103221.75
2023-02-08T21:39:08.979Z,103226.25
2023-02-08T21:41:36.746Z,103225.41
2023-02-08T21:44:08.117Z,103218.50
2023-02-08T21:46:36.216Z,103206.97
2023-02-08T21:49:21.483Z,103215.84
2023-02-08T21:52:08.189Z,103218.50
2023-02-08T21:54:42.665Z,103205.44
2023-02-08T21:57:12.682Z,103205.56
2023-02-08T21:59:40.672Z,103201.19
2023-02-08T22:02:12.170Z,103207.66
2023-02-08T22:04:41.960Z,103203.44
2023-02-08T22:07:11.076Z,103214.09
2023-02-08T22:09:41.503Z,103199.06
2023-02-08T22:12:14.450Z,103201.03
2023-02-08T22:14:42.358Z,103203.69
2023-02-08T22:17:10.148Z,103200.31
2023-02-08T22:19:39.908Z,103191.47
2023-02-08T22:22:08.257Z,103203.13
2023-02-08T22:24:37.733Z,103197.91
2023-02-08T22:27:05.492Z,103197.06
2023-02-08T22:29:33.209Z,103196.38
2023-02-08T22:32:01.240Z,103198.91
2023-02-08T22:34:29.191Z,103195.38
2023-02-08T22:36:56.879Z,103191.03
2023-02-08T22:39:24.646Z,103185.81
2023-02-08T22:41:53.742Z,103186.81
2023-02-08T22:44:21.418Z,103186.94
2023-02-08T22:46:49.242Z,103180.88
2023-02-08T22:49:17.009Z,103179.34
2023-02-08T22:51:44.772Z,103181.16
2023-02-08T22:54:12.495Z,103189.16
2023-02-08T22:56:40.292Z,103188.69
2023-02-08T22:59:09.526Z,103189.44
2023-02-08T23:01:38.302Z,103179.00
2023-02-08T23:04:07.015Z,103180.56
2023-02-08T23:06:35.603Z,103177.16
2023-02-08T23:09:03.916Z,103182.78
2023-02-08T23:11:31.685Z,103174.75
2023-02-08T23:13:59.451Z,103177.00
2023-02-08T23:16:28.544Z,103189.22
2023-02-08T23:18:56.289Z,103174.00
2023-02-08T23:21:24.078Z,103188.50
2023-02-08T23:23:51.779Z,103177.00
2023-02-08T23:26:21.451Z,103182.19
2023-02-08T23:28:51.622Z,103176.53
2023-02-08T23:31:20.130Z,103183.56
2023-02-08T23:33:50.201Z,103179.06
2023-02-08T23:36:20.879Z,103176.53
2023-02-08T23:38:48.691Z,103177.53
2023-02-08T23:41:18.830Z,103167.69
2023-02-08T23:43:46.746Z,103174.84
2023-02-08T23:46:17.026Z,103171.59
2023-02-08T23:48:47.538Z,103168.94
2023-02-08T23:51:18.575Z,103172.84
2023-02-08T23:53:46.752Z,103171.88
2023-02-08T23:56:17.944Z,103168.34
2023-02-08T23:58:47.528Z,103163.16
